createdAt,value
2023-01-24T00:00:44.205Z,-4.30
2023-01-24T00:03:13.680Z,-4.29
2023-01-24T00:05:41.728Z,-4.30
2023-01-24T00:08:09.252Z,-4.33
2023-01-24T00:10:37.353Z,-4.38
2023-01-24T00:13:04.509Z,-4.38
2023-01-24T00:15:31.763Z,-4.36
2023-01-24T00:17:59.215Z,-4.37
2023-01-24T00:20:26.352Z,-4.33
2023-01-24T00:22:53.428Z,-4.35
2023-01-24T00:25:20.703Z,-4.33
2023-01-24T00:27:47.955Z,-4.31
2023-01-24T00:30:15.000Z,-4.34
2023-01-24T00:32:42.156Z,-4.45
2023-01-24T00:35:09.756Z,-4.52
2023-01-24T00:37:36.874Z,-4.53
2023-01-24T00:40:04.076Z,-4.51
2023-01-24T00:42:31.035Z,-4.49
2023-01-24T00:44:58.562Z,-4.51
2023-01-24T00:47:26.687Z,-4.57
2023-01-24T00:49:53.632Z,-4.56
2023-01-24T00:52:20.640Z,-4.58
2023-01-24T00:54:49.203Z,-4.58
2023-01-24T00:57:16.217Z,-4.56
2023-01-24T00:59:43.445Z,-4.55
2023-01-24T01:02:14.684Z,-4.54
2023-01-24T01:04:44.173Z,-4.50
2023-01-24T01:07:14.728Z,-4.47
2023-01-24T01:09:42.747Z,-4.47
2023-01-24T01:12:11.047Z,-4.47
2023-01-24T01:14:38.320Z,-4.46
2023-01-24T01:17:06.876Z,-4.46
2023-01-24T01:19:34.083Z,-4.43
2023-01-24T01:22:02.236Z,-4.42
2023-01-24T01:24:30.874Z,-4.42
2023-01-24T01:26:59.109Z,-4.42
2023-01-24T01:29:26.154Z,-4.41
2023-01-24T01:31:53.308Z,-4.40
2023-01-24T01:34:20.510Z,-4.38
2023-01-24T01:36:47.666Z,-4.39
2023-01-24T01:39:14.756Z,-4.37
2023-01-24T01:41:41.723Z,-4.41
2023-01-24T01:44:39.196Z,-4.45
2023-01-24T01:47:25.438Z,-4.40
2023-01-24T01:50:11.287Z,-4.39
2023-01-24T01:52:40.253Z,-4.44
2023-01-24T01:55:20.123Z,-4.46
2023-01-24T01:57:49.167Z,-4.49
2023-01-24T02:00:22.378Z,-4.53
2023-01-24T02:02:52.500Z,-4.57
2023-01-24T02:05:22.304Z,-4.58
2023-01-24T02:07:57.883Z,-4.53
2023-01-24T02:10:25.926Z,-4.52
2023-01-24T02:12:54.997Z,-4.52
2023-01-24T02:15:42.349Z,-4.54
2023-01-24T02:18:11.500Z,-4.52
2023-01-24T02:20:42.264Z,-4.43
2023-01-24T02:23:12.663Z,-4.42
2023-01-24T02:25:58.673Z,-4.40
2023-01-24T02:28:27.771Z,-4.41
2023-01-24T02:30:58.417Z,-4.38
2023-01-24T02:33:25.944Z,-4.39
2023-01-24T02:36:16.847Z,-4.41
2023-01-24T02:38:47.507Z,-4.47
2023-01-24T02:41:17.607Z,-4.49
2023-01-24T02:43:47.512Z,-4.51
2023-01-24T02:46:14.729Z,-4.51
2023-01-24T02:48:41.731Z,-4.49
2023-01-24T02:51:27.351Z,-4.46
2023-01-24T02:53:54.443Z,-4.46
2023-01-24T02:56:40.077Z,-4.44
2023-01-24T02:59:07.149Z,-4.42
2023-01-24T03:01:36.253Z,-4.38
2023-01-24T03:04:03.496Z,-4.33
2023-01-24T03:06:33.359Z,-4.37
2023-01-24T03:09:00.329Z,-4.42
2023-01-24T03:11:35.520Z,-4.40
2023-01-24T03:14:20.947Z,-4.38
2023-01-24T03:17:06.334Z,-4.41
2023-01-24T03:19:52.792Z,-4.41
2023-01-24T03:22:39.239Z,-4.48
2023-01-24T03:25:25.068Z,-4.63
2023-01-24T03:28:11.603Z,-4.54
2023-01-24T03:30:57.571Z,-4.56
2023-01-24T03:33:48.515Z,-4.57
2023-01-24T03:36:20.837Z,-4.62
2023-01-24T03:39:12.409Z,-4.58
2023-01-24T03:41:39.559Z,-4.64
2023-01-24T03:44:06.927Z,-4.69
2023-01-24T03:46:34.772Z,-4.70
2023-01-24T03:49:01.721Z,-4.67
2023-01-24T03:51:52.593Z,-4.73
2023-01-24T03:54:20.656Z,-4.79
2023-01-24T03:57:03.746Z,-4.92
2023-01-24T03:59:31.533Z,-4.82
2023-01-24T04:01:58.891Z,-4.79
2023-01-24T04:04:50.737Z,-4.74
2023-01-24T04:07:26.550Z,-4.80
2023-01-24T04:10:04.478Z,-4.74
2023-01-24T04:12:37.842Z,-4.83
2023-01-24T04:15:06.065Z,-4.76
2023-01-24T04:17:34.333Z,-4.76
2023-01-24T04:20:04.289Z,-4.73
2023-01-24T04:22:31.689Z,-4.76
2023-01-24T04:25:01.058Z,-4.76
2023-01-24T04:27:32.625Z,-4.78
2023-01-24T04:30:08.272Z,-4.77
2023-01-24T04:32:37.540Z,-4.80
2023-01-24T04:35:27.744Z,-4.85
2023-01-24T04:38:01.442Z,-4.86
2023-01-24T04:41:01.235Z,-4.98
2023-01-24T04:43:32.333Z,-4.96
2023-01-24T04:45:59.763Z,-5.10
2023-01-24T04:48:44.110Z,-5.19
2023-01-24T04:51:11.171Z,-5.28
2023-01-24T04:53:42.416Z,-5.34
2023-01-24T04:56:12.433Z,-5.42
2023-01-24T04:58:39.936Z,-5.52
2023-01-24T05:01:09.982Z,-5.61
2023-01-24T05:03:47.701Z,-5.73
2023-01-24T05:06:14.882Z,-5.79
2023-01-24T05:08:41.927Z,-5.92
2023-01-24T05:11:09.339Z,-5.89
2023-01-24T05:13:43.369Z,-5.89
2023-01-24T05:16:11.902Z,-5.90
2023-01-24T05:18:39.604Z,-5.98
2023-01-24T05:21:12.521Z,-5.99
2023-01-24T05:23:40.394Z,-6.06
2023-01-24T05:26:07.945Z,-6.07
2023-01-24T05:28:35.323Z,-6.07
2023-01-24T05:31:04.897Z,-6.11
2023-01-24T05:33:32.298Z,-6.17
2023-01-24T05:36:07.767Z,-6.18
2023-01-24T05:38:37.294Z,-6.16
2023-01-24T05:41:06.893Z,-6.16
2023-01-24T05:43:35.533Z,-6.11
2023-01-24T05:46:05.724Z,-6.09
2023-01-24T05:48:37.460Z,-6.14
2023-01-24T05:51:07.386Z,-6.11
2023-01-24T05:53:37.182Z,-6.12
2023-01-24T05:56:14.357Z,-6.17
2023-01-24T05:58:42.915Z,-6.18
2023-01-24T06:01:22.388Z,-6.06
2023-01-24T06:03:52.797Z,-5.97
2023-01-24T06:06:22.214Z,-5.84
2023-01-24T06:08:55.939Z,-5.73
2023-01-24T06:11:27.076Z,-5.61
2023-01-24T06:14:05.543Z,-5.53
2023-01-24T06:16:32.678Z,-5.42
2023-01-24T06:19:00.747Z,-5.33
2023-01-24T06:21:50.485Z,-5.28
2023-01-24T06:24:27.589Z,-5.18
2023-01-24T06:27:10.417Z,-5.10
2023-01-24T06:29:37.770Z,-5.07
2023-01-24T06:32:07.534Z,-4.93
2023-01-24T06:34:43.243Z,-4.85
2023-01-24T06:37:22.992Z,-4.78
2023-01-24T06:39:53.847Z,-4.77
2023-01-24T06:42:22.502Z,-4.74
2023-01-24T06:44:49.595Z,-4.74
2023-01-24T06:47:16.883Z,-4.81
2023-01-24T06:49:44.254Z,-4.85
2023-01-24T06:52:12.723Z,-4.88
2023-01-24T06:54:39.821Z,-4.87
2023-01-24T06:57:07.342Z,-4.87
2023-01-24T06:59:34.281Z,-4.85
2023-01-24T07:02:01.320Z,-4.83
2023-01-24T07:04:28.280Z,-4.75
2023-01-24T07:06:55.267Z,-4.70
2023-01-24T07:09:22.931Z,-4.63
2023-01-24T07:11:53.558Z,-4.44
2023-01-24T07:14:20.953Z,-4.32
2023-01-24T07:16:49.337Z,-4.15
2023-01-24T07:19:21.501Z,-4.05
2023-01-24T07:21:50.386Z,-3.96
2023-01-24T07:24:19.305Z,-3.89
2023-01-24T07:26:46.673Z,-3.81
2023-01-24T07:29:13.762Z,-3.78
2023-01-24T07:31:41.159Z,-3.88
2023-01-24T07:34:08.103Z,-3.98
2023-01-24T07:36:35.080Z,-4.02
2023-01-24T07:39:02.602Z,-4.13
2023-01-24T07:41:29.645Z,-4.14
2023-01-24T07:43:59.999Z,-4.12
2023-01-24T07:46:26.977Z,-4.08
2023-01-24T07:48:53.893Z,-4.00
2023-01-24T07:51:21.540Z,-4.03
2023-01-24T07:53:49.125Z,-3.93
2023-01-24T07:56:25.575Z,-3.84
2023-01-24T07:58:53.212Z,-3.90
2023-01-24T08:01:21.161Z,-3.92
2023-01-24T08:03:50.371Z,-3.96
2023-01-24T08:06:18.783Z,-3.93
2023-01-24T08:08:45.778Z,-3.92
2023-01-24T08:11:16.921Z,-3.94
2023-01-24T08:13:44.794Z,-3.95
2023-01-24T08:16:11.962Z,-3.89
2023-01-24T08:18:39.684Z,-3.89
2023-01-24T08:21:09.259Z,-3.79
2023-01-24T08:23:36.795Z,-3.76
2023-01-24T08:26:06.859Z,-3.64
2023-01-24T08:28:34.947Z,-3.65
2023-01-24T08:31:01.985Z,-3.64
2023-01-24T08:33:29.055Z,-3.59
2023-01-24T08:35:56.117Z,-3.52
2023-01-24T08:38:24.021Z,-3.44
2023-01-24T08:40:51.203Z,-3.51
2023-01-24T08:43:18.634Z,-3.51
2023-01-24T08:45:45.845Z,-3.46
2023-01-24T08:48:12.861Z,-3.39
2023-01-24T08:50:39.897Z,-3.35
2023-01-24T08:53:06.963Z,-3.28
2023-01-24T08:55:34.049Z,-3.11
2023-01-24T08:58:05.612Z,-3.00
2023-01-24T09:00:33.214Z,-2.96
2023-01-24T09:03:01.908Z,-2.86
2023-01-24T09:05:30.168Z,-2.84
2023-01-24T09:07:57.727Z,-2.74
2023-01-24T09:10:24.764Z,-2.62
2023-01-24T09:12:52.132Z,-2.57
2023-01-24T09:15:19.265Z,-2.67
2023-01-24T09:17:46.374Z,-2.51
2023-01-24T09:20:14.139Z,-2.43
2023-01-24T09:22:42.014Z,-2.42
2023-01-24T09:25:10.012Z,-2.36
2023-01-24T09:27:38.111Z,-2.37
2023-01-24T09:30:06.332Z,-2.30
2023-01-24T09:32:33.473Z,-2.22
2023-01-24T09:35:00.456Z,-2.15
2023-01-24T09:37:27.963Z,-2.23
2023-01-24T09:39:57.171Z,-2.20
2023-01-24T09:42:28.904Z,-2.09
2023-01-24T09:45:11.954Z,-2.16
2023-01-24T09:48:04.093Z,-2.32
2023-01-24T09:50:46.785Z,-2.39
2023-01-24T09:53:23.009Z,-2.47
2023-01-24T09:55:50.425Z,-2.52
2023-01-24T09:58:41.284Z,-2.41
2023-01-24T10:01:13.887Z,-2.40
2023-01-24T10:03:41.996Z,-2.38
2023-01-24T10:06:23.885Z,-2.40
2023-01-24T10:08:53.820Z,-2.31
2023-01-24T10:11:39.039Z,-2.24
2023-01-24T10:14:32.046Z,-2.23
2023-01-24T10:17:23.526Z,-2.23
2023-01-24T10:20:12.189Z,-2.20
2023-01-24T10:23:05.828Z,-2.24
2023-01-24T10:26:11.293Z,-2.14
2023-01-24T10:28:42.287Z,-2.09
2023-01-24T10:31:13.405Z,-2.13
2023-01-24T10:33:50.431Z,-2.15
2023-01-24T10:36:32.076Z,-2.25
2023-01-24T10:38:59.161Z,-2.34
2023-01-24T10:41:27.664Z,-2.41
2023-01-24T10:44:04.695Z,-2.43
2023-01-24T10:46:50.269Z,-2.38
2023-01-24T10:49:21.884Z,-2.39
2023-01-24T10:52:09.025Z,-2.32
2023-01-24T10:54:44.580Z,-2.41
2023-01-24T10:57:59.655Z,-2.41
2023-01-24T11:00:36.766Z,-2.33
2023-01-24T11:03:19.520Z,-2.27
2023-01-24T11:05:55.842Z,-2.26
2023-01-24T11:08:26.427Z,-2.24
2023-01-24T11:10:55.404Z,-2.27
2023-01-24T11:13:38.238Z,-2.21
2023-01-24T11:16:07.063Z,-2.15
2023-01-24T11:18:34.852Z,-2.15
2023-01-24T11:21:10.363Z,-2.16
2023-01-24T11:23:37.528Z,-2.15
2023-01-24T11:26:06.878Z,-2.17
2023-01-24T11:28:36.795Z,-2.11
2023-01-24T11:31:24.088Z,-2.09
2023-01-24T11:34:04.847Z,-2.06
2023-01-24T11:36:42.520Z,-2.03
2023-01-24T11:39:37.852Z,-1.97
2023-01-24T11:42:17.677Z,-1.96
2023-01-24T11:45:23.444Z,-1.86
2023-01-24T11:48:08.774Z,-1.87
2023-01-24T11:50:45.033Z,-1.89
2023-01-24T11:53:21.752Z,-1.93
2023-01-24T11:56:11.183Z,-1.83
2023-01-24T11:59:15.797Z,-1.78
2023-01-24T12:02:21.697Z,-1.73
2023-01-24T12:05:07.537Z,-1.78
2023-01-24T12:07:51.226Z,-1.76
2023-01-24T12:11:14.774Z,-1.76
2023-01-24T12:14:02.021Z,-1.77
2023-01-24T12:17:27.186Z,-1.78
2023-01-24T12:20:29.104Z,-1.80
2023-01-24T12:23:02.838Z,-1.83
2023-01-24T12:25:34.910Z,-1.87
2023-01-24T12:28:08.480Z,-1.88
2023-01-24T12:30:55.252Z,-1.95
2023-01-24T12:33:33.563Z,-1.89
2023-01-24T12:36:10.110Z,-1.98
2023-01-24T12:38:45.706Z,-2.06
2023-01-24T12:41:35.335Z,-2.09
2023-01-24T12:44:11.778Z,-2.13
2023-01-24T12:47:07.262Z,-2.15
2023-01-24T12:49:44.617Z,-2.19
2023-01-24T12:52:29.201Z,-2.17
2023-01-24T12:55:09.942Z,-2.17
2023-01-24T12:57:40.077Z,-2.17
2023-01-24T13:00:17.900Z,-2.15
2023-01-24T13:02:54.988Z,-2.25
2023-01-24T13:05:30.029Z,-2.33
2023-01-24T13:08:04.420Z,-2.33
2023-01-24T13:11:08.531Z,-2.34
2023-01-24T13:13:41.695Z,-2.35
2023-01-24T13:16:41.313Z,-2.42
2023-01-24T13:19:38.076Z,-2.49
2023-01-24T13:22:43.827Z,-2.49
2023-01-24T13:25:23.771Z,-2.51
2023-01-24T13:28:00.498Z,-2.53
2023-01-24T13:30:36.546Z,-2.57
2023-01-24T13:33:06.648Z,-2.57
2023-01-24T13:35:33.872Z,-2.56
2023-01-24T13:38:26.505Z,-2.58
2023-01-24T13:41:03.973Z,-2.67
2023-01-24T13:43:52.612Z,-2.67
2023-01-24T13:46:20.144Z,-2.69
2023-01-24T13:48:55.071Z,-2.66
2023-01-24T13:51:22.128Z,-2.69
2023-01-24T13:54:14.088Z,-2.73
2023-01-24T13:57:23.461Z,-2.75
2023-01-24T14:00:18.422Z,-2.75
2023-01-24T14:02:51.138Z,-2.72
2023-01-24T14:05:30.015Z,-2.70
2023-01-24T14:08:03.214Z,-2.73
2023-01-24T14:10:41.531Z,-2.70
2023-01-24T14:13:45.799Z,-2.71
2023-01-24T14:16:16.861Z,-2.76
2023-01-24T14:18:48.864Z,-2.76
2023-01-24T14:21:22.062Z,-2.76
2023-01-24T14:23:52.092Z,-2.77
2023-01-24T14:26:22.559Z,-2.79
2023-01-24T14:28:56.483Z,-2.85
2023-01-24T14:31:32.558Z,-2.89
2023-01-24T14:34:07.297Z,-2.84
2023-01-24T14:36:40.063Z,-2.87
2023-01-24T14:39:24.896Z,-2.84
2023-01-24T14:41:55.307Z,-2.89
2023-01-24T14:44:25.458Z,-2.83
2023-01-24T14:47:17.360Z,-2.89
2023-01-24T14:49:48.623Z,-2.96
2023-01-24T14:52:24.679Z,-2.94
2023-01-24T14:54:59.826Z,-2.95
2023-01-24T14:57:32.302Z,-2.93
2023-01-24T15:00:17.075Z,-2.90
2023-01-24T15:03:02.859Z,-2.89
2023-01-24T15:05:33.913Z,-2.86
2023-01-24T15:08:02.498Z,-2.90
2023-01-24T15:10:32.657Z,-2.90
2023-01-24T15:13:02.117Z,-2.87
2023-01-24T15:15:29.577Z,-2.87
2023-01-24T15:18:02.577Z,-2.95
2023-01-24T15:20:31.525Z,-2.85
2023-01-24T15:23:01.480Z,-2.87
2023-01-24T15:25:34.003Z,-2.89
2023-01-24T15:28:22.137Z,-2.89
2023-01-24T15:30:59.942Z,-3.01
2023-01-24T15:33:40.724Z,-2.90
2023-01-24T15:36:26.961Z,-2.99
2023-01-24T15:38:56.360Z,-3.00
2023-01-24T15:41:57.564Z,-2.95
2023-01-24T15:44:24.739Z,-2.98
2023-01-24T15:47:15.965Z,-3.00
2023-01-24T15:50:36.481Z,-2.99
2023-01-24T15:53:13.219Z,-2.99
2023-01-24T15:55:41.854Z,-3.00
2023-01-24T15:58:10.562Z,-2.95
2023-01-24T16:00:38.249Z,-2.94
2023-01-24T16:03:05.932Z,-2.96
2023-01-24T16:05:33.962Z,-2.93
2023-01-24T16:08:01.404Z,-2.92
2023-01-24T16:10:28.895Z,-2.91
2023-01-24T16:12:56.349Z,-2.92
2023-01-24T16:15:23.498Z,-2.90
2023-01-24T16:17:51.250Z,-2.90
2023-01-24T16:20:19.681Z,-2.91
2023-01-24T16:22:47.357Z,-2.95
2023-01-24T16:25:15.539Z,-2.95
2023-01-24T16:27:43.016Z,-2.97
2023-01-24T16:30:22.580Z,-2.96
2023-01-24T16:32:49.883Z,-2.95
2023-01-24T16:35:17.653Z,-2.96
2023-01-24T16:37:45.438Z,-2.95
2023-01-24T16:40:15.718Z,-2.95
2023-01-24T16:42:44.777Z,-2.94
2023-01-24T16:45:20.365Z,-2.94
2023-01-24T16:47:47.697Z,-2.95
2023-01-24T16:50:17.693Z,-2.99
2023-01-24T16:52:46.722Z,-2.99
2023-01-24T16:55:14.219Z,-2.98
2023-01-24T16:57:41.594Z,-3.09
2023-01-24T17:00:14.543Z,-3.00
2023-01-24T17:02:45.610Z,-2.99
2023-01-24T17:05:13.258Z,-3.00
2023-01-24T17:07:40.998Z,-2.98
2023-01-24T17:10:09.259Z,-3.10
2023-01-24T17:12:46.311Z,-2.98
2023-01-24T17:15:13.779Z,-3.00
2023-01-24T17:17:59.070Z,-3.01
2023-01-24T17:20:29.898Z,-3.01
2023-01-24T17:23:05.909Z,-3.03
2023-01-24T17:25:40.934Z,-3.05
2023-01-24T17:28:25.217Z,-3.09
2023-01-24T17:30:53.348Z,-3.09
2023-01-24T17:33:20.365Z,-3.14
2023-01-24T17:35:53.660Z,-3.07
2023-01-24T17:38:26.940Z,-3.12
2023-01-24T17:40:54.095Z,-3.16
2023-01-24T17:43:21.208Z,-3.11
2023-01-24T17:46:10.372Z,-3.10
2023-01-24T17:48:38.489Z,-3.10
2023-01-24T17:51:20.498Z,-3.12
2023-01-24T17:53:48.231Z,-3.11
2023-01-24T17:56:18.811Z,-3.09
2023-01-24T17:58:49.306Z,-3.07
2023-01-24T18:01:16.445Z,-3.00
2023-01-24T18:03:45.340Z,-3.02
2023-01-24T18:06:13.727Z,-3.02
2023-01-24T18:08:57.927Z,-3.02
2023-01-24T18:11:29.348Z,-3.03
2023-01-24T18:14:14.523Z,-3.08
2023-01-24T18:16:44.839Z,-3.09
2023-01-24T18:19:25.519Z,-3.09
2023-01-24T18:21:55.917Z,-3.06
2023-01-24T18:24:37.032Z,-3.03
2023-01-24T18:27:04.417Z,-3.01
2023-01-24T18:29:32.202Z,-3.03
2023-01-24T18:31:59.802Z,-3.06
2023-01-24T18:34:26.991Z,-2.99
2023-01-24T18:37:00.531Z,-3.02
2023-01-24T18:39:28.236Z,-3.00
2023-01-24T18:42:01.604Z,-2.99
2023-01-24T18:44:31.636Z,-3.04
2023-01-24T18:46:58.630Z,-2.98
2023-01-24T18:49:25.892Z,-3.02
2023-01-24T18:51:52.872Z,-3.01
2023-01-24T18:54:26.841Z,-3.02
2023-01-24T18:56:56.902Z,-3.03
2023-01-24T18:59:29.289Z,-3.05
2023-01-24T19:02:07.135Z,-3.09
2023-01-24T19:04:34.426Z,-3.07
2023-01-24T19:07:03.138Z,-3.06
2023-01-24T19:09:31.213Z,-3.06
2023-01-24T19:12:03.729Z,-3.04
2023-01-24T19:14:31.788Z,-3.05
2023-01-24T19:17:17.188Z,-3.03
2023-01-24T19:19:44.339Z,-3.02
2023-01-24T19:22:12.171Z,-3.02
2023-01-24T19:24:39.206Z,-3.03
2023-01-24T19:27:06.162Z,-3.08
2023-01-24T19:29:38.649Z,-3.09
2023-01-24T19:32:08.585Z,-3.07
2023-01-24T19:34:35.669Z,-3.10
2023-01-24T19:37:02.680Z,-3.08
2023-01-24T19:39:29.725Z,-3.12
2023-01-24T19:41:56.740Z,-3.11
2023-01-24T19:44:26.024Z,-3.11
2023-01-24T19:46:53.000Z,-3.12
2023-01-24T19:49:20.469Z,-3.12
2023-01-24T19:51:47.555Z,-3.11
2023-01-24T19:54:14.715Z,-3.15
2023-01-24T19:56:41.762Z,-3.15
2023-01-24T19:59:08.756Z,-3.16
2023-01-24T20:01:35.768Z,-3.16
2023-01-24T20:04:21.953Z,-3.16
2023-01-24T20:06:50.734Z,-3.18
2023-01-24T20:09:17.757Z,-3.24
2023-01-24T20:11:45.878Z,-3.20
2023-01-24T20:14:12.871Z,-3.19
2023-01-24T20:16:39.969Z,-3.22
2023-01-24T20:19:10.861Z,-3.21
2023-01-24T20:21:44.282Z,-3.26
2023-01-24T20:24:13.411Z,-3.25
2023-01-24T20:26:40.840Z,-3.28
2023-01-24T20:29:13.195Z,-3.27
2023-01-24T20:31:40.341Z,-3.29
2023-01-24T20:34:07.880Z,-3.30
2023-01-24T20:36:35.372Z,-3.30
2023-01-24T20:39:02.439Z,-3.32
2023-01-24T20:41:36.172Z,-3.35
2023-01-24T20:44:04.032Z,-3.34
2023-01-24T20:46:31.306Z,-3.35
2023-01-24T20:48:59.781Z,-3.32
2023-01-24T20:51:29.428Z,-3.29
2023-01-24T20:54:00.908Z,-3.27
2023-01-24T20:56:28.759Z,-3.27
2023-01-24T20:58:57.819Z,-3.29
2023-01-24T21:01:26.303Z,-3.30
2023-01-24T21:03:59.461Z,-3.31
2023-01-24T21:06:26.591Z,-3.35
2023-01-24T21:08:53.920Z,-3.35
2023-01-24T21:11:23.570Z,-3.36
2023-01-24T21:13:53.187Z,-3.35
2023-01-24T21:16:20.996Z,-3.32
2023-01-24T21:18:53.269Z,-3.31
2023-01-24T21:21:23.029Z,-3.30
2023-01-24T21:23:50.262Z,-3.32
2023-01-24T21:26:17.929Z,-3.28
2023-01-24T21:28:48.501Z,-3.24
2023-01-24T21:31:18.777Z,-3.24
2023-01-24T21:33:46.064Z,-3.27
2023-01-24T21:36:17.322Z,-3.24
2023-01-24T21:38:45.015Z,-3.25
2023-01-24T21:41:32.799Z,-3.23
2023-01-24T21:44:00.089Z,-3.21
2023-01-24T21:46:27.355Z,-3.24
2023-01-24T21:49:06.895Z,-3.26
2023-01-24T21:51:41.230Z,-3.28
2023-01-24T21:54:22.886Z,-3.25
2023-01-24T21:57:28.082Z,-3.21
2023-01-24T21:59:58.173Z,-3.20
2023-01-24T22:02:32.261Z,-3.21
2023-01-24T22:05:01.163Z,-3.20
2023-01-24T22:07:32.088Z,-3.21
2023-01-24T22:10:01.124Z,-3.20
2023-01-24T22:12:33.493Z,-3.22
2023-01-24T22:15:00.762Z,-3.20
2023-01-24T22:17:27.915Z,-3.23
2023-01-24T22:19:56.813Z,-3.23
2023-01-24T22:22:38.502Z,-3.19
2023-01-24T22:25:11.341Z,-3.17
2023-01-24T22:27:38.659Z,-3.16
2023-01-24T22:30:17.700Z,-3.13
2023-01-24T22:32:45.529Z,-3.14
2023-01-24T22:35:16.996Z,-3.14
2023-01-24T22:37:49.861Z,-3.14
2023-01-24T22:40:18.818Z,-3.15
2023-01-24T22:42:45.987Z,-3.19
2023-01-24T22:45:13.126Z,-3.18
2023-01-24T22:47:40.039Z,-3.21
2023-01-24T22:50:07.534Z,-3.23
2023-01-24T22:52:35.401Z,-3.21
2023-01-24T22:55:02.952Z,-3.19
2023-01-24T22:57:31.270Z,-3.19
2023-01-24T22:59:58.332Z,-3.24
2023-01-24T23:02:28.010Z,-3.23
2023-01-24T23:04:57.179Z,-3.24
2023-01-24T23:07:24.139Z,-3.27
2023-01-24T23:09:51.283Z,-3.24
2023-01-24T23:12:37.368Z,-3.24
2023-01-24T23:15:23.495Z,-3.25
2023-01-24T23:17:52.270Z,-3.22
2023-01-24T23:20:37.687Z,-3.20
2023-01-24T23:23:04.692Z,-3.24
2023-01-24T23:25:31.790Z,-3.23
2023-01-24T23:27:58.718Z,-3.23
2023-01-24T23:30:46.059Z,-3.21
2023-01-24T23:33:32.223Z,-3.17
2023-01-24T23:36:00.724Z,-3.15
2023-01-24T23:38:27.977Z,-3.11
2023-01-24T23:40:54.932Z,-3.11
2023-01-24T23:43:21.807Z,-3.09
2023-01-24T23:45:48.882Z,-3.05
2023-01-24T23:48:15.871Z,-3.01
2023-01-24T23:50:42.771Z,-3.01
2023-01-24T23:53:09.839Z,-3.01
2023-01-24T23:55:36.780Z,-3.02
2023-01-24T23:58:03.967Z,-3.08
